createdAt,value
2023-04-17T00:01:18.233Z,98324.44
2023-04-17T00:03:47.403Z,98330.84
2023-04-17T00:06:16.495Z,98336.09
2023-04-17T00:08:44.679Z,98326.88
2023-04-17T00:11:12.942Z,98328.44
2023-04-17T00:13:44.032Z,98335.00
2023-04-17T00:16:13.806Z,98329.03
2023-04-17T00:18:42.552Z,98327.59
2023-04-17T00:21:10.596Z,98330.50
2023-04-17T00:23:38.859Z,98334.00
2023-04-17T00:26:06.872Z,98329.41
2023-04-17T00:28:34.897Z,98327.28
2023-04-17T00:31:04.702Z,98327.16
2023-04-17T00:33:33.384Z,98321.75
2023-04-17T00:36:01.574Z,98326.44
2023-04-17T00:38:29.651Z,98322.63
2023-04-17T00:40:57.797Z,98323.19
2023-04-17T00:43:25.893Z,98325.06
2023-04-17T00:45:55.112Z,98327.16
2023-04-17T00:48:25.195Z,98329.31
2023-04-17T00:50:55.485Z,98335.22
2023-04-17T00:53:24.024Z,98335.56
2023-04-17T00:55:53.210Z,98327.44
2023-04-17T00:58:22.209Z,98335.38
2023-04-17T01:00:50.822Z,98338.09
2023-04-17T01:03:19.088Z,98330.41
2023-04-17T01:05:52.424Z,98337.78
2023-04-17T01:08:20.889Z,98330.72
2023-04-17T01:10:49.196Z,98333.44
2023-04-17T01:13:17.340Z,98335.16
2023-04-17T01:15:47.112Z,98335.75
2023-04-17T01:18:15.342Z,98326.44
2023-04-17T01:20:43.428Z,98340.31
2023-04-17T01:23:12.884Z,98329.94
2023-04-17T01:25:42.672Z,98322.41
2023-04-17T01:28:10.850Z,98331.06
2023-04-17T01:30:39.063Z,98335.78
2023-04-17T01:33:09.449Z,98317.84
2023-04-17T01:35:38.026Z,98323.53
2023-04-17T01:38:06.217Z,98313.59
2023-04-17T01:40:34.339Z,98325.00
2023-04-17T01:43:03.761Z,98322.78
2023-04-17T01:45:32.003Z,98323.41
2023-04-17T01:48:01.021Z,98323.53
2023-04-17T01:50:29.236Z,98312.09
2023-04-17T01:52:57.336Z,98317.75
2023-04-17T01:55:25.457Z,98321.78
2023-04-17T01:57:53.513Z,98326.94
2023-04-17T02:00:23.785Z,98324.16
2023-04-17T02:02:51.995Z,98314.44
2023-04-17T02:05:20.299Z,98323.44
2023-04-17T02:07:50.895Z,98325.91
2023-04-17T02:10:20.068Z,98332.84
2023-04-17T02:12:48.111Z,98343.84
2023-04-17T02:15:16.557Z,98339.75
2023-04-17T02:17:47.195Z,98334.78
2023-04-17T02:20:15.648Z,98332.63
2023-04-17T02:22:43.754Z,98331.69
2023-04-17T02:25:11.777Z,98328.19
2023-04-17T02:27:39.854Z,98328.84
2023-04-17T02:30:09.838Z,98325.03
2023-04-17T02:32:38.031Z,98338.03
2023-04-17T02:35:09.410Z,98332.19
2023-04-17T02:37:37.817Z,98334.00
2023-04-17T02:40:08.046Z,98334.72
2023-04-17T02:42:36.195Z,98334.00
2023-04-17T02:45:05.778Z,98333.75
2023-04-17T02:47:33.971Z,98335.97
2023-04-17T02:50:02.938Z,98334.09
2023-04-17T02:52:37.718Z,98330.56
2023-04-17T02:55:07.028Z,98332.34
2023-04-17T02:57:35.559Z,98327.81
2023-04-17T03:00:07.921Z,98336.00
2023-04-17T03:02:38.229Z,98332.34
2023-04-17T03:05:07.325Z,98334.00
2023-04-17T03:07:37.590Z,98334.19
2023-04-17T03:10:06.439Z,98346.59
2023-04-17T03:12:34.635Z,98345.41
2023-04-17T03:15:02.664Z,98349.66
2023-04-17T03:17:31.139Z,98358.41
2023-04-17T03:19:59.256Z,98359.06
2023-04-17T03:22:27.370Z,98355.66
2023-04-17T03:24:56.819Z,98364.00
2023-04-17T03:27:27.203Z,98357.59
2023-04-17T03:29:56.647Z,98361.44
2023-04-17T03:32:26.644Z,98358.88
2023-04-17T03:34:54.820Z,98363.72
2023-04-17T03:37:23.109Z,98359.16
2023-04-17T03:39:52.162Z,98362.69
2023-04-17T03:42:21.688Z,98358.38
2023-04-17T03:44:49.856Z,98362.50
2023-04-17T03:47:18.047Z,98359.91
2023-04-17T03:49:46.946Z,98360.22
2023-04-17T03:52:15.438Z,98370.66
2023-04-17T03:54:44.085Z,98372.38
2023-04-17T03:57:13.469Z,98386.03
2023-04-17T03:59:42.927Z,98382.25
2023-04-17T04:02:11.271Z,98385.66
2023-04-17T04:04:39.530Z,98381.97
2023-04-17T04:07:12.660Z,98381.91
2023-04-17T04:09:40.825Z,98382.91
2023-04-17T04:12:09.552Z,98382.47
2023-04-17T04:14:43.327Z,98385.22
2023-04-17T04:17:12.292Z,98387.97
2023-04-17T04:19:41.192Z,98379.16
2023-04-17T04:22:10.372Z,98395.00
2023-04-17T04:24:45.729Z,98384.28
2023-04-17T04:27:18.211Z,98393.03
2023-04-17T04:29:49.743Z,98385.34
2023-04-17T04:32:21.087Z,98394.06
2023-04-17T04:34:50.828Z,98388.84
2023-04-17T04:37:22.130Z,98388.97
2023-04-17T04:39:54.029Z,98395.59
2023-04-17T04:42:24.006Z,98400.81
2023-04-17T04:45:04.495Z,98396.25
2023-04-17T04:47:33.925Z,98396.16
2023-04-17T04:50:02.066Z,98386.28
2023-04-17T04:52:30.138Z,98394.53
2023-04-17T04:55:01.928Z,98389.03
2023-04-17T04:57:31.976Z,98401.66
2023-04-17T05:00:06.448Z,98397.22
2023-04-17T05:02:39.830Z,98396.28
2023-04-17T05:05:10.892Z,98402.63
2023-04-17T05:07:38.998Z,98398.16
2023-04-17T05:10:11.312Z,98402.03
2023-04-17T05:12:44.552Z,98398.31
2023-04-17T05:15:16.357Z,98400.31
2023-04-17T05:17:45.236Z,98395.63
2023-04-17T05:20:15.097Z,98398.16
2023-04-17T05:22:54.787Z,98403.97
2023-04-17T05:25:23.903Z,98405.03
2023-04-17T05:27:52.854Z,98403.63
2023-04-17T05:30:22.493Z,98404.81
2023-04-17T05:32:56.676Z,98406.03
2023-04-17T05:35:31.817Z,98398.72
2023-04-17T05:38:00.628Z,98390.25
2023-04-17T05:40:28.718Z,98400.16
2023-04-17T05:42:56.886Z,98394.38
2023-04-17T05:45:27.098Z,98394.69
2023-04-17T05:47:55.229Z,98405.16
2023-04-17T05:50:23.254Z,98401.97
2023-04-17T05:52:51.454Z,98410.81
2023-04-17T05:55:20.396Z,98420.44
2023-04-17T05:57:52.320Z,98414.16
2023-04-17T06:00:22.773Z,98420.59
2023-04-17T06:02:58.063Z,98413.03
2023-04-17T06:05:33.725Z,98420.28
2023-04-17T06:08:01.950Z,98422.19
2023-04-17T06:10:29.955Z,98419.56
2023-04-17T06:12:58.007Z,98413.47
2023-04-17T06:15:26.712Z,98420.44
2023-04-17T06:17:54.904Z,98418.81
2023-04-17T06:20:24.518Z,98428.41
2023-04-17T06:22:52.583Z,98421.91
2023-04-17T06:25:20.574Z,98424.75
2023-04-17T06:27:48.631Z,98425.53
2023-04-17T06:30:16.858Z,98431.59
2023-04-17T06:32:51.375Z,98436.97
2023-04-17T06:35:21.061Z,98423.44
2023-04-17T06:37:55.327Z,98427.75
2023-04-17T06:40:23.824Z,98436.16
2023-04-17T06:42:52.986Z,98441.06
2023-04-17T06:45:22.926Z,98441.88
2023-04-17T06:47:51.032Z,98442.06
2023-04-17T06:50:19.276Z,98443.03
2023-04-17T06:52:47.429Z,98444.19
2023-04-17T06:55:17.016Z,98439.25
2023-04-17T06:57:45.022Z,98445.84
2023-04-17T07:00:14.393Z,98446.97
2023-04-17T07:02:42.416Z,98448.75
2023-04-17T07:05:11.196Z,98445.31
2023-04-17T07:07:39.888Z,98439.91
2023-04-17T07:10:08.924Z,98439.81
2023-04-17T07:12:38.349Z,98453.50
2023-04-17T07:15:07.378Z,98448.31
2023-04-17T07:17:35.545Z,98446.66
2023-04-17T07:20:05.407Z,98442.06
2023-04-17T07:22:34.332Z,98445.03
2023-04-17T07:25:02.332Z,98439.25
2023-04-17T07:27:30.451Z,98439.25
2023-04-17T07:29:59.922Z,98441.97
2023-04-17T07:32:28.628Z,98451.41
2023-04-17T07:34:56.700Z,98455.56
2023-04-17T07:37:24.788Z,98466.16
2023-04-17T07:39:53.700Z,98460.78
2023-04-17T07:42:21.868Z,98459.44
2023-04-17T07:44:50.076Z,98465.06
2023-04-17T07:47:19.667Z,98460.47
2023-04-17T07:49:49.216Z,98454.28
2023-04-17T07:52:18.187Z,98449.88
2023-04-17T07:54:46.343Z,98451.38
2023-04-17T07:57:15.260Z,98459.06
2023-04-17T07:59:43.255Z,98451.78
2023-04-17T08:02:11.798Z,98457.56
2023-04-17T08:04:41.936Z,98463.88
2023-04-17T08:07:11.347Z,98470.56
2023-04-17T08:09:40.246Z,98473.84
2023-04-17T08:12:09.199Z,98471.00
2023-04-17T08:14:37.217Z,98469.91
2023-04-17T08:17:07.627Z,98470.28
2023-04-17T08:19:36.037Z,98469.34
2023-04-17T08:22:07.402Z,98472.31
2023-04-17T08:24:35.596Z,98470.84
2023-04-17T08:27:03.687Z,98479.72
2023-04-17T08:29:31.729Z,98468.44
2023-04-17T08:32:13.360Z,98473.69
2023-04-17T08:34:42.624Z,98473.00
2023-04-17T08:37:11.982Z,98471.66
2023-04-17T08:40:19.993Z,98478.72
2023-04-17T08:42:54.039Z,98487.13
2023-04-17T08:45:25.046Z,98483.84
2023-04-17T08:47:53.334Z,98487.06
2023-04-17T08:50:23.515Z,98485.88
2023-04-17T08:52:53.715Z,98498.91
2023-04-17T08:55:25.437Z,98489.38
2023-04-17T08:58:01.069Z,98496.78
2023-04-17T09:00:31.511Z,98493.59
2023-04-17T09:03:01.245Z,98477.03
2023-04-17T09:05:33.600Z,98488.16
2023-04-17T09:08:11.663Z,98483.88
2023-04-17T09:10:41.784Z,98492.69
2023-04-17T09:13:10.619Z,98492.72
2023-04-17T09:15:38.929Z,98489.66
2023-04-17T09:18:07.281Z,98486.63
2023-04-17T09:20:50.234Z,98493.66
2023-04-17T09:23:20.027Z,98491.31
2023-04-17T09:25:48.069Z,98490.34
2023-04-17T09:28:16.695Z,98489.28
2023-04-17T09:30:44.918Z,98482.25
2023-04-17T09:33:13.072Z,98481.81
2023-04-17T09:35:41.150Z,98485.13
2023-04-17T09:38:09.252Z,98485.88
2023-04-17T09:40:45.234Z,98482.84
2023-04-17T09:43:13.354Z,98486.38
2023-04-17T09:45:42.921Z,98476.72
2023-04-17T09:48:13.314Z,98485.59
2023-04-17T09:50:41.740Z,98476.53
2023-04-17T09:53:10.116Z,98486.56
2023-04-17T09:55:39.494Z,98471.91
2023-04-17T09:58:09.065Z,98480.06
2023-04-17T10:00:38.271Z,98486.53
2023-04-17T10:03:08.338Z,98488.78
2023-04-17T10:05:36.894Z,98489.88
2023-04-17T10:08:05.730Z,98484.34
2023-04-17T10:10:36.583Z,98489.94
2023-04-17T10:13:08.075Z,98486.69
2023-04-17T10:15:40.718Z,98489.00
2023-04-17T10:18:23.679Z,98491.94
2023-04-17T10:20:53.667Z,98487.34
2023-04-17T10:23:32.960Z,98494.47
2023-04-17T10:26:45.937Z,98482.31
2023-04-17T10:29:14.081Z,98479.88
2023-04-17T10:32:26.031Z,98483.91
2023-04-17T10:34:57.212Z,98489.94
2023-04-17T10:37:58.429Z,98485.41
2023-04-17T10:40:33.893Z,98487.88
2023-04-17T10:43:08.015Z,98484.81
2023-04-17T10:45:59.861Z,98490.38
2023-04-17T10:48:31.199Z,98489.31
2023-04-17T10:51:01.778Z,98495.50
2023-04-17T10:53:44.086Z,98486.44
2023-04-17T10:56:13.648Z,98492.25
2023-04-17T10:58:57.968Z,98485.34
2023-04-17T11:01:28.912Z,98480.78
2023-04-17T11:03:58.163Z,98479.38
2023-04-17T11:06:29.985Z,98480.81
2023-04-17T11:08:58.904Z,98482.50
2023-04-17T11:11:40.390Z,98484.53
2023-04-17T11:14:14.405Z,98481.84
2023-04-17T11:16:44.360Z,98482.59
2023-04-17T11:19:14.757Z,98491.97
2023-04-17T11:21:45.229Z,98489.19
2023-04-17T11:24:13.314Z,98493.28
2023-04-17T11:26:45.509Z,98493.09
2023-04-17T11:29:16.813Z,98493.00
2023-04-17T11:31:46.037Z,98487.44
2023-04-17T11:34:15.686Z,98486.16
2023-04-17T11:36:51.589Z,98486.78
2023-04-17T11:39:20.222Z,98487.31
2023-04-17T11:41:48.582Z,98492.38
2023-04-17T11:44:20.195Z,98488.25
2023-04-17T11:46:51.062Z,98491.00
2023-04-17T11:49:25.629Z,98493.41
2023-04-17T11:51:56.770Z,98490.84
2023-04-17T11:54:28.729Z,98495.38
2023-04-17T11:57:01.780Z,98491.13
2023-04-17T11:59:34.358Z,98491.56
2023-04-17T12:02:03.403Z,98496.66
2023-04-17T12:04:34.381Z,98487.03
2023-04-17T12:07:05.755Z,98486.56
2023-04-17T12:09:34.309Z,98478.31
2023-04-17T12:12:03.872Z,98494.56
2023-04-17T12:14:32.277Z,98487.50
2023-04-17T12:17:00.689Z,98496.16
2023-04-17T12:19:29.936Z,98490.44
2023-04-17T12:21:59.321Z,98486.09
2023-04-17T12:24:28.836Z,98486.59
2023-04-17T12:26:58.711Z,98495.25
2023-04-17T12:29:42.314Z,98496.94
2023-04-17T12:32:12.674Z,98486.88
2023-04-17T12:34:41.123Z,98487.16
2023-04-17T12:37:09.431Z,98482.56
2023-04-17T12:39:38.765Z,98493.38
2023-04-17T12:42:06.985Z,98481.22
2023-04-17T12:44:35.034Z,98482.09
2023-04-17T12:47:03.473Z,98485.63
2023-04-17T12:49:31.528Z,98480.31
2023-04-17T12:52:02.410Z,98482.09
2023-04-17T12:54:31.483Z,98482.09
2023-04-17T12:57:01.592Z,98476.50
2023-04-17T12:59:29.702Z,98483.28
2023-04-17T13:01:58.024Z,98479.69
2023-04-17T13:04:26.321Z,98485.25
2023-04-17T13:06:54.549Z,98482.84
2023-04-17T13:09:22.617Z,98476.88
2023-04-17T13:11:50.949Z,98466.88
2023-04-17T13:14:20.780Z,98483.22
2023-04-17T13:16:50.767Z,98481.44
2023-04-17T13:19:18.974Z,98482.25
2023-04-17T13:21:47.009Z,98468.06
2023-04-17T13:24:15.698Z,98479.69
2023-04-17T13:26:43.795Z,98477.59
2023-04-17T13:29:12.580Z,98461.25
2023-04-17T13:31:42.273Z,98458.06
2023-04-17T13:34:11.798Z,98465.13
2023-04-17T13:36:39.806Z,98468.91
2023-04-17T13:39:08.634Z,98474.34
2023-04-17T13:41:39.709Z,98476.53
2023-04-17T13:44:08.262Z,98475.03
2023-04-17T13:46:36.693Z,98458.94
2023-04-17T13:49:06.259Z,98465.75
2023-04-17T13:51:34.331Z,98465.81
2023-04-17T13:54:02.487Z,98464.75
2023-04-17T13:56:30.670Z,98470.19
2023-04-17T13:58:59.563Z,98469.38
2023-04-17T14:01:27.719Z,98469.28
2023-04-17T14:03:55.997Z,98464.56
2023-04-17T14:06:28.176Z,98466.09
2023-04-17T14:08:56.757Z,98476.09
2023-04-17T14:11:24.821Z,98480.03
2023-04-17T14:13:52.873Z,98472.13
2023-04-17T14:16:21.392Z,98471.38
2023-04-17T14:18:50.212Z,98473.06
2023-04-17T14:21:19.106Z,98470.56
2023-04-17T14:23:48.946Z,98472.56
2023-04-17T14:26:17.082Z,98458.19
2023-04-17T14:28:45.061Z,98462.13
2023-04-17T14:31:13.206Z,98462.84
2023-04-17T14:33:41.257Z,98464.59
2023-04-17T14:36:10.127Z,98460.84
2023-04-17T14:38:38.983Z,98462.34
2023-04-17T14:41:08.712Z,98463.00
2023-04-17T14:43:36.858Z,98465.91
2023-04-17T14:46:05.078Z,98464.38
2023-04-17T14:48:38.408Z,98452.47
2023-04-17T14:51:17.003Z,98458.03
2023-04-17T14:53:45.116Z,98451.03
2023-04-17T14:56:14.684Z,98451.69
2023-04-17T14:58:42.744Z,98448.06
2023-04-17T15:01:11.567Z,98461.84
2023-04-17T15:03:39.825Z,98463.31
2023-04-17T15:06:08.926Z,98465.50
2023-04-17T15:08:36.962Z,98456.31
2023-04-17T15:11:05.196Z,98466.59
2023-04-17T15:13:34.596Z,98460.22
2023-04-17T15:16:02.841Z,98448.81
2023-04-17T15:18:31.037Z,98455.19
2023-04-17T15:20:59.345Z,98450.94
2023-04-17T15:23:28.758Z,98462.81
2023-04-17T15:25:57.683Z,98463.69
2023-04-17T15:28:26.071Z,98462.25
2023-04-17T15:30:56.946Z,98457.00
2023-04-17T15:33:25.038Z,98454.78
2023-04-17T15:35:56.614Z,98459.44
2023-04-17T15:38:25.116Z,98468.66
2023-04-17T15:40:53.270Z,98471.38
2023-04-17T15:43:22.051Z,98465.03
2023-04-17T15:45:50.507Z,98460.84
2023-04-17T15:48:20.072Z,98471.25
2023-04-17T15:50:48.160Z,98472.53
2023-04-17T15:53:16.277Z,98468.91
2023-04-17T15:55:44.322Z,98471.91
2023-04-17T15:58:12.446Z,98470.00
2023-04-17T16:00:40.490Z,98467.59
2023-04-17T16:03:08.741Z,98471.56
2023-04-17T16:05:38.313Z,98476.63
2023-04-17T16:08:06.442Z,98469.91
2023-04-17T16:10:35.256Z,98464.56
2023-04-17T16:13:03.369Z,98471.63
2023-04-17T16:15:31.662Z,98472.31
2023-04-17T16:18:01.394Z,98480.84
2023-04-17T16:20:30.729Z,98472.31
2023-04-17T16:23:00.191Z,98480.66
2023-04-17T16:25:28.376Z,98474.09
2023-04-17T16:27:56.405Z,98474.66
2023-04-17T16:30:24.621Z,98480.44
2023-04-17T16:32:52.702Z,98482.38
2023-04-17T16:35:20.826Z,98488.78
2023-04-17T16:37:48.835Z,98481.84
2023-04-17T16:40:18.550Z,98485.72
2023-04-17T16:42:51.203Z,98487.19
2023-04-17T16:45:23.240Z,98486.13
2023-04-17T16:47:51.378Z,98488.91
2023-04-17T16:50:19.727Z,98489.88
2023-04-17T16:52:51.962Z,98489.59
2023-04-17T16:55:25.207Z,98489.00
2023-04-17T16:57:54.662Z,98487.03
2023-04-17T17:00:23.482Z,98497.69
2023-04-17T17:02:52.198Z,98490.25
2023-04-17T17:05:20.674Z,98501.19
2023-04-17T17:07:49.065Z,98492.56
2023-04-17T17:10:17.167Z,98492.19
2023-04-17T17:12:46.731Z,98491.50
2023-04-17T17:15:14.798Z,98501.72
2023-04-17T17:17:43.153Z,98492.34
2023-04-17T17:20:11.767Z,98498.06
2023-04-17T17:22:39.804Z,98497.38
2023-04-17T17:25:08.929Z,98494.84
2023-04-17T17:27:37.005Z,98500.22
2023-04-17T17:30:07.483Z,98511.66
2023-04-17T17:32:35.840Z,98509.59
2023-04-17T17:35:03.875Z,98510.47
2023-04-17T17:37:32.058Z,98512.47
2023-04-17T17:40:00.122Z,98512.09
2023-04-17T17:42:28.194Z,98507.09
2023-04-17T17:44:56.516Z,98513.50
2023-04-17T17:47:26.102Z,98519.31
2023-04-17T17:49:54.121Z,98521.81
2023-04-17T17:52:22.296Z,98521.13
2023-04-17T17:54:50.282Z,98520.09
2023-04-17T17:57:18.407Z,98521.91
2023-04-17T17:59:46.494Z,98526.81
2023-04-17T18:02:14.774Z,98531.53
2023-04-17T18:04:44.562Z,98541.00
2023-04-17T18:07:12.841Z,98537.50
2023-04-17T18:09:40.876Z,98539.84
2023-04-17T18:12:09.152Z,98538.44
2023-04-17T18:14:37.287Z,98539.75
2023-04-17T18:17:05.416Z,98543.78
2023-04-17T18:19:34.391Z,98545.84
2023-04-17T18:22:03.865Z,98545.34
2023-04-17T18:24:31.975Z,98542.91
2023-04-17T18:27:00.327Z,98543.78
2023-04-17T18:29:28.309Z,98543.53
2023-04-17T18:31:56.445Z,98551.34
2023-04-17T18:34:24.596Z,98545.81
2023-04-17T18:36:53.028Z,98540.44
2023-04-17T18:39:22.433Z,98538.84
2023-04-17T18:41:50.500Z,98545.22
2023-04-17T18:44:18.691Z,98538.84
2023-04-17T18:46:47.864Z,98538.19
2023-04-17T18:49:16.158Z,98542.81
2023-04-17T18:51:47.815Z,98534.31
2023-04-17T18:54:16.384Z,98541.94
2023-04-17T18:56:46.117Z,98537.56
2023-04-17T18:59:14.641Z,98543.59
2023-04-17T19:01:43.194Z,98539.97
2023-04-17T19:04:11.498Z,98533.28
2023-04-17T19:06:39.682Z,98540.56
2023-04-17T19:09:07.830Z,98539.03
2023-04-17T19:11:35.835Z,98537.19
2023-04-17T19:14:05.399Z,98538.69
2023-04-17T19:16:33.452Z,98540.00
2023-04-17T19:19:01.594Z,98536.63
2023-04-17T19:21:31.743Z,98535.75
2023-04-17T19:24:00.037Z,98536.69
2023-04-17T19:26:28.067Z,98532.53
2023-04-17T19:28:56.416Z,98533.84
2023-04-17T19:31:25.839Z,98532.03
2023-04-17T19:33:56.206Z,98530.13
2023-04-17T19:36:24.675Z,98537.72
2023-04-17T19:38:54.979Z,98538.06
2023-04-17T19:41:23.047Z,98526.25
2023-04-17T19:43:55.476Z,98533.63
2023-04-17T19:46:27.517Z,98525.06
2023-04-17T19:48:55.722Z,98525.22
2023-04-17T19:51:23.700Z,98525.13
2023-04-17T19:53:53.538Z,98524.59
2023-04-17T19:56:21.711Z,98518.16
2023-04-17T19:58:49.812Z,98514.69
2023-04-17T20:01:18.123Z,98524.97
2023-04-17T20:03:47.759Z,98520.47
2023-04-17T20:06:16.049Z,98514.50
2023-04-17T20:08:44.113Z,98516.78
2023-04-17T20:11:12.916Z,98524.84
2023-04-17T20:13:40.948Z,98518.66
2023-04-17T20:16:09.263Z,98514.28
2023-04-17T20:18:38.036Z,98518.72
2023-04-17T20:21:07.532Z,98521.28
2023-04-17T20:23:35.596Z,98515.53
2023-04-17T20:26:03.886Z,98522.94
2023-04-17T20:28:31.926Z,98523.25
2023-04-17T20:31:00.078Z,98515.69
2023-04-17T20:33:28.402Z,98513.22
2023-04-17T20:35:56.557Z,98511.75
2023-04-17T20:38:25.990Z,98512.59
2023-04-17T20:40:54.094Z,98516.97
2023-04-17T20:43:22.091Z,98511.69
2023-04-17T20:45:50.616Z,98515.44
2023-04-17T20:48:19.950Z,98508.75
2023-04-17T20:50:48.076Z,98511.25
2023-04-17T20:53:16.045Z,98512.94
2023-04-17T20:55:47.034Z,98525.53
2023-04-17T20:58:15.159Z,98518.63
2023-04-17T21:00:54.408Z,98519.56
2023-04-17T21:03:30.135Z,98522.97
2023-04-17T21:05:58.477Z,98516.06
2023-04-17T21:08:26.778Z,98520.63
2023-04-17T21:10:56.405Z,98515.94
2023-04-17T21:13:24.690Z,98518.97
2023-04-17T21:15:52.788Z,98511.56
2023-04-17T21:18:20.916Z,98514.59
2023-04-17T21:20:48.975Z,98519.38
2023-04-17T21:23:17.210Z,98504.75
2023-04-17T21:25:45.198Z,98518.97
2023-04-17T21:28:14.825Z,98519.53
2023-04-17T21:30:42.865Z,98519.88
2023-04-17T21:33:10.972Z,98502.19
2023-04-17T21:35:39.315Z,98505.50
2023-04-17T21:38:07.409Z,98506.41
2023-04-17T21:40:37.087Z,98508.81
2023-04-17T21:43:05.756Z,98515.44
2023-04-17T21:45:35.106Z,98508.38
2023-04-17T21:48:03.465Z,98506.66
2023-04-17T21:50:31.850Z,98507.66
2023-04-17T21:53:00.055Z,98506.63
2023-04-17T21:55:28.376Z,98515.81
2023-04-17T21:57:56.472Z,98504.47
2023-04-17T22:00:24.537Z,98512.03
2023-04-17T22:02:54.467Z,98511.03
2023-04-17T22:05:22.711Z,98509.44
2023-04-17T22:07:55.078Z,98515.09
2023-04-17T22:10:24.266Z,98509.56
2023-04-17T22:12:52.523Z,98505.22
2023-04-17T22:15:20.640Z,98508.34
2023-04-17T22:17:48.801Z,98505.19
2023-04-17T22:20:18.344Z,98514.22
2023-04-17T22:22:47.501Z,98500.25
2023-04-17T22:25:15.651Z,98513.22
2023-04-17T22:27:43.753Z,98510.00
2023-04-17T22:30:12.194Z,98510.31
2023-04-17T22:32:40.299Z,98502.13
2023-04-17T22:35:09.858Z,98516.28
2023-04-17T22:37:39.265Z,98523.63
2023-04-17T22:40:09.009Z,98512.50
2023-04-17T22:42:55.333Z,98509.69
2023-04-17T22:45:47.821Z,98505.69
2023-04-17T22:48:16.029Z,98510.22
2023-04-17T22:50:45.551Z,98516.19
2023-04-17T22:53:15.062Z,98506.00
2023-04-17T22:55:43.238Z,98519.53
2023-04-17T22:58:11.571Z,98513.78
2023-04-17T23:00:39.711Z,98509.78
2023-04-17T23:03:07.936Z,98521.53
2023-04-17T23:05:36.463Z,98516.50
2023-04-17T23:08:04.495Z,98521.59
2023-04-17T23:11:27.721Z,98518.31
2023-04-17T23:14:20.544Z,98515.47
2023-04-17T23:16:48.686Z,98518.06
2023-04-17T23:19:16.745Z,98514.97
2023-04-17T23:21:44.803Z,98509.94
2023-04-17T23:24:13.104Z,98509.41
2023-04-17T23:26:41.927Z,98511.41
2023-04-17T23:29:09.924Z,98506.47
2023-04-17T23:31:39.508Z,98504.25
2023-04-17T23:34:07.584Z,98509.38
2023-04-17T23:36:35.641Z,98497.41
2023-04-17T23:39:05.139Z,98503.19
2023-04-17T23:41:33.809Z,98504.16
2023-04-17T23:44:01.863Z,98502.88
2023-04-17T23:46:30.003Z,98504.47
2023-04-17T23:48:59.351Z,98503.63
2023-04-17T23:51:27.712Z,98501.84
2023-04-17T23:53:56.078Z,98494.03
2023-04-17T23:56:24.094Z,98502.13
2023-04-17T23:58:52.050Z,98494.78
